Time;durP1;ratioP1;P1;durP2;ratioP2;P2;SDS_P1;SDS_P2;PMS_P1;PMS_P2;Temp;Humidity;BMP_temperature;BMP_pressure;BME280_temperature;BME280_humidity;BME280_pressure;Samples;Min_cycle;Max_cycle;Signal;HPM_P1;HPM_P2
2022/06/05 00:02:19;;;;;;;14.27;7.57;;;;;;;;;;4378895;32;20035;-69
2022/06/05 00:04:50;;;;;;;12.55;8.05;;;;;;;;;;4378199;32;20397;-68
2022/06/05 00:07:21;;;;;;;11.57;7.75;;;;;;;;;;4363826;32;20053;-67
2022/06/05 00:09:58;;;;;;;14.80;7.87;;;;;;;;;;4377954;32;20341;-68
2022/06/05 00:12:28;;;;;;;13.27;7.97;;;;;;;;;;4376813;32;20517;-69
2022/06/05 00:14:53;;;;;;;13.23;7.18;;;;;;;;;;4378571;32;20496;-68
2022/06/05 00:17:20;;;;;;;12.23;8.32;;;;;;;;;;4362957;32;20035;-68
2022/06/05 00:19:46;;;;;;;13.93;8.27;;;;;;;;;;4376285;32;20035;-68
2022/06/05 00:22:12;;;;;;;21.12;9.40;;;;;;;;;;4363433;32;20027;-68
2022/06/05 00:24:37;;;;;;;13.98;8.82;;;;;;;;;;4364715;32;20073;-69
2022/06/05 00:27:02;;;;;;;15.20;8.85;;;;;;;;;;4376975;32;20401;-68
2022/06/05 00:29:42;;;;;;;12.65;8.23;;;;;;;;;;4377391;32;20026;-69
2022/06/05 00:32:11;;;;;;;12.05;8.07;;;;;;;;;;4377315;32;20476;-69
2022/06/05 00:34:36;;;;;;;11.80;8.52;;;;;;;;;;4376901;32;20031;-68
2022/06/05 00:37:01;;;;;;;14.73;8.80;;;;;;;;;;4377614;32;20084;-68
2022/06/05 00:39:56;;;;;;;13.70;8.40;;;;;;;;;;4392459;27;20069;-76
2022/06/05 00:42:24;;;;;;;10.48;7.30;;;;;;;;;;4376896;32;20563;-76
2022/06/05 00:44:54;;;;;;;10.25;7.80;;;;;;;;;;4377182;32;20067;-76
2022/06/05 00:47:22;;;;;;;11.32;8.88;;;;;;;;;;4376910;32;20070;-76
2022/06/05 00:55:58;;;;;;;14.77;8.95;;;;;;;;;;4330725;33;20094;-76
2022/06/05 00:58:24;;;;;;;12.35;8.60;;;;;;;;;;4390731;32;20069;-75
2022/06/05 01:00:54;;;;;;;17.60;8.82;;;;;;;;;;4391547;32;20061;-75
2022/06/05 01:03:20;;;;;;;14.43;8.68;;;;;;;;;;4391504;32;20031;-75
2022/06/05 01:05:45;;;;;;;11.15;8.52;;;;;;;;;;4391699;32;20034;-75
2022/06/05 01:08:11;;;;;;;13.18;8.30;;;;;;;;;;4391922;32;20054;-76
2022/06/05 01:10:55;;;;;;;14.35;8.68;;;;;;;;;;4391893;32;20034;-76
2022/06/05 01:13:40;;;;;;;17.15;8.95;;;;;;;;;;4391976;32;20051;-75
2022/06/05 01:16:05;;;;;;;16.35;8.57;;;;;;;;;;4391812;32;20026;-74
2022/06/05 01:18:38;;;;;;;12.48;9.02;;;;;;;;;;4391893;32;20053;-74
2022/06/05 01:21:50;;;;;;;13.32;8.18;;;;;;;;;;4391965;32;20027;-74
2022/06/05 01:24:25;;;;;;;17.23;9.23;;;;;;;;;;4385998;32;20027;-74
2022/06/05 01:26:55;;;;;;;16.67;9.15;;;;;;;;;;4391173;32;20133;-75
2022/06/05 01:29:28;;;;;;;13.85;8.95;;;;;;;;;;4376882;32;20063;-75
2022/06/05 01:31:58;;;;;;;14.35;8.20;;;;;;;;;;4376450;32;20409;-74
2022/06/05 01:34:26;;;;;;;12.68;8.82;;;;;;;;;;4376141;32;20054;-74
2022/06/05 01:37:07;;;;;;;15.25;9.13;;;;;;;;;;4376492;32;20405;-74
2022/06/05 01:39:41;;;;;;;16.33;8.95;;;;;;;;;;4375508;32;20065;-74
2022/06/05 01:45:30;;;;;;;10.30;7.68;;;;;;;;;;4376294;32;20074;-75
2022/06/05 01:47:59;;;;;;;14.77;8.68;;;;;;;;;;4375931;32;20073;-75
2022/06/05 01:50:47;;;;;;;13.90;8.43;;;;;;;;;;4375995;32;20034;-75
2022/06/05 01:53:47;;;;;;;;;;;;;;;;;;;;;
2022/06/05 01:56:35;;;;;;;;;;;;;;;;;;;;;
2022/06/05 01:59:10;;;;;;;14.60;8.73;;;;;;;;;;4376530;32;20043;-75
2022/06/05 02:01:41;;;;;;;11.67;8.70;;;;;;;;;;4376186;32;20050;-75
2022/06/05 02:04:21;;;;;;;;;;;;;;;;;;;;;
2022/06/05 02:10:26;;;;;;;19.40;8.95;;;;;;;;;;4343889;33;20109;-76
2022/06/05 02:12:53;;;;;;;12.43;7.93;;;;;;;;;;4346448;32;20129;-75
2022/06/05 02:15:28;;;;;;;10.77;8.75;;;;;;;;;;4375588;32;20024;-75
2022/06/05 02:18:41;;;;;;;13.73;7.77;;;;;;;;;;4368798;32;20411;-76
2022/06/05 02:20:44;;;;;;;16.17;8.95;;;;;;;;;;4357768;33;20116;-75
2022/06/05 02:23:23;;;;;;;12.77;8.18;;;;;;;;;;4360821;33;20063;-76
2022/06/05 02:25:52;;;;;;;12.75;8.70;;;;;;;;;;4361046;32;20137;-75
2022/06/05 02:28:21;;;;;;;15.63;8.60;;;;;;;;;;4360637;33;20105;-75
2022/06/05 02:30:50;;;;;;;14.77;8.82;;;;;;;;;;4360369;33;20027;-75
2022/06/05 02:33:41;;;;;;;14.20;9.60;;;;;;;;;;4360901;32;20023;-75
2022/06/05 02:36:14;;;;;;;15.18;10.25;;;;;;;;;;4348385;33;20114;-75
2022/06/05 02:38:48;;;;;;;19.40;13.73;;;;;;;;;;4361287;32;20476;-75
2022/06/05 02:41:17;;;;;;;17.65;12.23;;;;;;;;;;4361462;32;20027;-75
2022/06/05 02:47:05;;;;;;;13.60;11.03;;;;;;;;;;4360714;32;20061;-75
2022/06/05 02:49:34;;;;;;;20.10;14.00;;;;;;;;;;4363060;32;20035;-75
2022/06/05 02:52:05;;;;;;;17.48;12.07;;;;;;;;;;4375809;32;20301;-75
2022/06/05 02:54:31;;;;;;;17.45;12.02;;;;;;;;;;4375806;32;20032;-75
2022/06/05 02:56:56;;;;;;;19.30;12.50;;;;;;;;;;4375464;32;20741;-75
2022/06/05 02:59:23;;;;;;;21.05;12.68;;;;;;;;;;4375346;32;20454;-75
2022/06/05 03:04:36;;;;;;;18.87;12.85;;;;;;;;;;4375800;32;20069;-75
2022/06/05 03:07:01;;;;;;;19.15;13.95;;;;;;;;;;4375368;32;20035;-75
2022/06/05 03:09:27;;;;;;;19.30;13.82;;;;;;;;;;4375121;32;20453;-75
2022/06/05 03:11:52;;;;;;;16.85;13.20;;;;;;;;;;4375318;32;20317;-75
2022/06/05 03:14:17;;;;;;;19.02;14.73;;;;;;;;;;4376693;32;20031;-75
2022/06/05 03:16:45;;;;;;;18.50;14.95;;;;;;;;;;4378559;32;20097;-74
2022/06/05 03:19:11;;;;;;;19.73;12.88;;;;;;;;;;4376471;32;20095;-75
2022/06/05 03:21:37;;;;;;;18.55;13.55;;;;;;;;;;4363033;32;20054;-75
2022/06/05 03:24:02;;;;;;;18.75;14.40;;;;;;;;;;4362864;33;20028;-74
2022/06/05 03:26:28;;;;;;;18.40;12.55;;;;;;;;;;4362956;32;20035;-74
2022/06/05 03:28:53;;;;;;;19.60;13.27;;;;;;;;;;4363431;32;20023;-75
2022/06/05 03:31:18;;;;;;;;;;;;;;;;;;4363132;32;20031;-75
2022/06/05 03:33:54;;;;;;;20.73;14.40;;;;;;;;;;4363281;32;19972;-74
2022/06/05 03:36:19;;;;;;;19.57;13.03;;;;;;;;;;4363817;32;20176;-75
2022/06/05 03:38:50;;;;;;;17.05;12.85;;;;;;;;;;4362715;32;20047;-75
2022/06/05 03:41:16;;;;;;;18.83;13.32;;;;;;;;;;4363386;32;20050;-75
2022/06/05 03:43:42;;;;;;;16.67;14.32;;;;;;;;;;4362927;32;20058;-75
2022/06/05 03:46:12;;;;;;;19.05;12.95;;;;;;;;;;4362957;32;20031;-74
2022/06/05 03:48:37;;;;;;;18.90;14.55;;;;;;;;;;4362757;32;20153;-75
2022/06/05 03:51:34;;;;;;;17.85;14.32;;;;;;;;;;4377793;32;20031;-75
2022/06/05 03:53:59;;;;;;;21.70;14.07;;;;;;;;;;4377805;32;20035;-74
2022/06/05 03:56:24;;;;;;;;;;;;;;;;;;4378010;32;20119;-75
2022/06/05 03:58:50;;;;;;;18.25;13.82;;;;;;;;;;4378227;32;20033;-75
2022/06/05 04:01:17;;;;;;;18.62;13.80;;;;;;;;;;4377365;32;20039;-75
2022/06/05 04:03:43;;;;;;;18.48;12.48;;;;;;;;;;4377549;32;20061;-75
2022/06/05 04:06:09;;;;;;;22.58;15.43;;;;;;;;;;4377577;32;20039;-74
2022/06/05 04:08:37;;;;;;;22.70;14.52;;;;;;;;;;4377702;32;20056;-75
2022/06/05 04:11:06;;;;;;;23.60;13.85;;;;;;;;;;4378336;32;20347;-75
2022/06/05 04:13:31;;;;;;;27.85;14.57;;;;;;;;;;4377636;32;20049;-74
2022/06/05 04:15:57;;;;;;;24.75;14.95;;;;;;;;;;4377286;32;20091;-75
2022/06/05 04:18:25;;;;;;;18.77;14.65;;;;;;;;;;4377096;32;20058;-74
2022/06/05 04:20:50;;;;;;;20.20;14.52;;;;;;;;;;4363089;32;20068;-75
2022/06/05 04:23:16;;;;;;;20.67;15.80;;;;;;;;;;4362458;32;20092;-75
2022/06/05 04:25:42;;;;;;;22.35;14.95;;;;;;;;;;4361292;32;20035;-75
2022/06/05 04:28:11;;;;;;;24.85;15.57;;;;;;;;;;4362601;32;20050;-75
2022/06/05 04:30:37;;;;;;;24.25;16.50;;;;;;;;;;4362816;32;20028;-75
2022/06/05 04:33:02;;;;;;;25.12;16.33;;;;;;;;;;4362672;32;20085;-75
2022/06/05 04:35:28;;;;;;;17.98;14.90;;;;;;;;;;4362309;32;20093;-75
2022/06/05 04:37:53;;;;;;;;;;;;;;;;;;4362100;33;20097;-75
2022/06/05 04:40:18;;;;;;;19.55;14.40;;;;;;;;;;4361721;32;19934;-75
2022/06/05 04:42:44;;;;;;;;;;;;;;;;;;4362116;32;20156;-76
2022/06/05 04:45:09;;;;;;;20.55;14.80;;;;;;;;;;4362035;33;19942;-75
2022/06/05 04:47:34;;;;;;;22.10;14.68;;;;;;;;;;4361769;32;20040;-76
2022/06/05 04:50:00;;;;;;;20.58;15.35;;;;;;;;;;4371727;32;20058;-76
2022/06/05 04:52:25;;;;;;;;;;;;;;;;;;4377108;32;20035;-75
2022/06/05 04:54:50;;;;;;;23.35;14.82;;;;;;;;;;4377035;32;20349;-75
2022/06/05 04:57:16;;;;;;;26.08;17.17;;;;;;;;;;4377476;32;20023;-75
2022/06/05 05:00:02;;;;;;;;;;;;;;;;;;4377217;32;20054;-75
2022/06/05 05:02:26;;;;;;;21.85;15.93;;;;;;;;;;4376534;32;19934;-74
2022/06/05 05:05:01;;;;;;;25.15;17.02;;;;;;;;;;4376699;32;20064;-75
2022/06/05 05:07:26;;;;;;;21.08;15.73;;;;;;;;;;4377237;32;20027;-75
2022/06/05 05:10:04;;;;;;;24.05;17.35;;;;;;;;;;4376599;32;20046;-75
2022/06/05 05:12:40;;;;;;;25.83;15.70;;;;;;;;;;4376935;32;20107;-74
2022/06/05 05:18:03;;;;;;;23.55;16.80;;;;;;;;;;4367176;32;20073;-75
2022/06/05 05:20:29;;;;;;;23.33;15.90;;;;;;;;;;4364345;32;20082;-75
2022/06/05 05:22:54;;;;;;;26.60;16.75;;;;;;;;;;4361375;32;20433;-75
2022/06/05 05:25:19;;;;;;;23.90;17.10;;;;;;;;;;4361191;32;20114;-75
2022/06/05 05:27:45;;;;;;;22.50;17.37;;;;;;;;;;4361176;32;20054;-74
2022/06/05 05:30:10;;;;;;;;;;;;;;;;;;4361891;32;20070;-75
2022/06/05 05:32:44;;;;;;;27.73;18.40;;;;;;;;;;4362348;32;20017;-75
2022/06/05 05:35:10;;;;;;;25.02;18.10;;;;;;;;;;4361817;32;20603;-75
2022/06/05 05:37:38;;;;;;;22.62;17.62;;;;;;;;;;4361185;32;20027;-75
2022/06/05 05:42:47;;;;;;;23.02;17.62;;;;;;;;;;4361645;32;20065;-75
2022/06/05 05:45:13;;;;;;;29.30;19.23;;;;;;;;;;4373707;32;20412;-75
2022/06/05 05:47:41;;;;;;;26.37;18.83;;;;;;;;;;4376743;32;20039;-75
2022/06/05 05:50:11;;;;;;;24.55;18.42;;;;;;;;;;4376408;32;20393;-75
2022/06/05 05:52:36;;;;;;;29.92;19.30;;;;;;;;;;4376293;32;20028;-74
2022/06/05 05:55:05;;;;;;;30.75;19.23;;;;;;;;;;4375827;32;20051;-75
2022/06/05 05:57:30;;;;;;;27.23;17.80;;;;;;;;;;4376407;32;20093;-75
2022/06/05 05:59:56;;;;;;;25.88;18.95;;;;;;;;;;4376554;32;20027;-75
2022/06/05 06:02:45;;;;;;;25.65;18.70;;;;;;;;;;4375983;32;20030;-75
2022/06/05 06:05:13;;;;;;;25.02;17.55;;;;;;;;;;4376726;32;20396;-75
2022/06/05 06:07:38;;;;;;;28.10;18.45;;;;;;;;;;4378029;32;20078;-75
2022/06/05 06:10:10;;;;;;;27.60;17.92;;;;;;;;;;4376402;32;20054;-75
2022/06/05 06:12:39;;;;;;;29.23;18.67;;;;;;;;;;4376161;32;20053;-75
2022/06/05 06:15:05;;;;;;;26.10;18.62;;;;;;;;;;4364383;32;20039;-75
2022/06/05 06:17:36;;;;;;;23.35;18.83;;;;;;;;;;4361295;32;20465;-74
2022/06/05 06:20:04;;;;;;;27.33;19.27;;;;;;;;;;4361408;32;20040;-74
2022/06/05 06:22:30;;;;;;;25.58;19.30;;;;;;;;;;4362244;32;20063;-75
2022/06/05 06:24:58;;;;;;;23.95;17.37;;;;;;;;;;4361948;32;20409;-75
2022/06/05 06:27:56;;;;;;;27.58;19.42;;;;;;;;;;4361625;32;20673;-75
2022/06/05 06:30:22;;;;;;;22.95;18.33;;;;;;;;;;4352208;33;20038;-74
2022/06/05 06:33:11;;;;;;;28.35;18.48;;;;;;;;;;4361771;32;20035;-74
2022/06/05 06:35:36;;;;;;;26.02;18.17;;;;;;;;;;4361186;33;20057;-75
2022/06/05 06:38:04;;;;;;;24.42;17.40;;;;;;;;;;4368189;32;20057;-75
2022/06/05 06:40:30;;;;;;;26.70;19.02;;;;;;;;;;4391031;32;20093;-74
2022/06/05 06:42:56;;;;;;;25.73;18.65;;;;;;;;;;4390840;32;20376;-75
2022/06/05 06:45:31;;;;;;;27.95;17.48;;;;;;;;;;4381864;32;20399;-74
2022/06/05 06:48:03;;;;;;;27.55;18.55;;;;;;;;;;4390533;32;20061;-74
2022/06/05 06:50:31;;;;;;;22.50;16.62;;;;;;;;;;4390809;32;20076;-76
2022/06/05 06:52:59;;;;;;;23.90;18.27;;;;;;;;;;4390150;32;20031;-75
2022/06/05 06:55:28;;;;;;;23.00;18.40;;;;;;;;;;4390776;32;20057;-75
2022/06/05 06:57:56;;;;;;;22.65;18.23;;;;;;;;;;4390778;32;20098;-75
2022/06/05 07:00:22;;;;;;;25.48;19.17;;;;;;;;;;4390139;32;20031;-75
2022/06/05 07:02:47;;;;;;;20.35;17.08;;;;;;;;;;4390890;32;20053;-75
2022/06/05 07:11:10;;;;;;;25.52;18.30;;;;;;;;;;4355114;32;20073;-75
2022/06/05 07:13:36;;;;;;;25.77;19.02;;;;;;;;;;4370946;32;20027;-75
2022/06/05 07:16:02;;;;;;;23.23;16.95;;;;;;;;;;4375432;32;20015;-75
2022/06/05 07:18:27;;;;;;;23.25;16.85;;;;;;;;;;4375316;32;20062;-75
2022/06/05 07:21:23;;;;;;;;;;;;;;;;;;;;;
2022/06/05 07:27:32;;;;;;;21.75;17.45;;;;;;;;;;4345866;32;20078;-77
2022/06/05 07:30:07;;;;;;;23.02;17.48;;;;;;;;;;4375275;32;20065;-77
2022/06/05 07:32:33;;;;;;;23.23;18.30;;;;;;;;;;4375802;32;20039;-75
2022/06/05 07:34:58;;;;;;;19.67;17.00;;;;;;;;;;4374681;32;20168;-76
2022/06/05 07:37:24;;;;;;;23.23;17.20;;;;;;;;;;4375177;32;20057;-75
2022/06/05 07:39:50;;;;;;;23.58;16.55;;;;;;;;;;4374610;32;20042;-75
2022/06/05 07:42:15;;;;;;;21.62;16.80;;;;;;;;;;4375242;32;20094;-76
2022/06/05 07:44:41;;;;;;;20.55;17.52;;;;;;;;;;4361968;32;20035;-75
2022/06/05 07:47:07;;;;;;;21.55;16.75;;;;;;;;;;4359995;32;20027;-76
2022/06/05 07:49:34;;;;;;;19.42;15.95;;;;;;;;;;4360362;33;20039;-75
2022/06/05 07:54:44;;;;;;;19.40;15.85;;;;;;;;;;4360148;33;20070;-74
2022/06/05 07:57:12;;;;;;;20.40;15.82;;;;;;;;;;4360322;32;20376;-74
2022/06/05 07:59:50;;;;;;;17.80;14.40;;;;;;;;;;4359256;32;20032;-74
2022/06/05 08:02:26;;;;;;;19.27;14.38;;;;;;;;;;4362578;32;20053;-75
2022/06/05 08:04:52;;;;;;;20.00;14.00;;;;;;;;;;4362227;32;20137;-74
2022/06/05 08:07:19;;;;;;;20.52;15.25;;;;;;;;;;4362423;32;20027;-74
2022/06/05 08:09:45;;;;;;;15.38;13.85;;;;;;;;;;4362768;32;20098;-76
2022/06/05 08:12:11;;;;;;;17.30;14.25;;;;;;;;;;4362293;33;20047;-75
2022/06/05 08:14:37;;;;;;;17.37;13.88;;;;;;;;;;4362912;32;20035;-75
2022/06/05 08:17:07;;;;;;;16.67;13.93;;;;;;;;;;4362338;32;20054;-75
2022/06/05 08:19:33;;;;;;;18.35;14.65;;;;;;;;;;4384701;32;20035;-75
2022/06/05 08:21:59;;;;;;;17.33;12.73;;;;;;;;;;4392005;32;20030;-75
2022/06/05 08:24:27;;;;;;;20.42;14.40;;;;;;;;;;4392128;32;20034;-74
2022/06/05 08:26:52;;;;;;;13.62;12.23;;;;;;;;;;4391804;32;20026;-75
2022/06/05 08:29:18;;;;;;;14.90;12.40;;;;;;;;;;4378754;32;20064;-75
2022/06/05 08:31:44;;;;;;;14.15;12.60;;;;;;;;;;4392413;32;20053;-75
2022/06/05 08:34:09;;;;;;;14.93;13.00;;;;;;;;;;4392383;32;20046;-75
2022/06/05 08:36:34;;;;;;;16.55;13.57;;;;;;;;;;4391859;32;20348;-75
2022/06/05 08:41:53;;;;;;;16.58;11.95;;;;;;;;;;4389807;32;20093;-75
2022/06/05 08:44:27;;;;;;;14.57;11.85;;;;;;;;;;4367824;32;20478;-75
2022/06/05 08:49:47;;;;;;;11.98;10.77;;;;;;;;;;4315421;33;20095;-75
2022/06/05 08:52:15;;;;;;;13.02;10.43;;;;;;;;;;4355948;33;20024;-74
2022/06/05 08:54:55;;;;;;;11.32;10.23;;;;;;;;;;4361528;32;20086;-75
2022/06/05 08:57:24;;;;;;;14.00;10.88;;;;;;;;;;4362961;32;20117;-75
2022/06/05 09:00:05;;;;;;;11.60;10.27;;;;;;;;;;4362014;32;20032;-75
2022/06/05 09:03:21;;;;;;;;;;;;;;;;;;;;;
2022/06/05 09:05:49;;;;;;;12.67;10.60;;;;;;;;;;4327163;33;20058;-75
2022/06/05 09:08:19;;;;;;;13.48;9.93;;;;;;;;;;4362491;32;20023;-76
2022/06/05 09:10:45;;;;;;;13.13;9.57;;;;;;;;;;4361687;33;20019;-76
2022/06/05 09:13:33;;;;;;;12.55;10.38;;;;;;;;;;4361450;32;20090;-76
2022/06/05 09:16:33;;;;;;;10.27;9.18;;;;;;;;;;4372304;32;20073;-76
2022/06/05 09:18:58;;;;;;;10.82;9.80;;;;;;;;;;4376894;32;20145;-76
2022/06/05 09:21:31;;;;;;;11.88;9.50;;;;;;;;;;4376560;32;20023;-76
2022/06/05 09:23:56;;;;;;;11.93;9.80;;;;;;;;;;4376719;32;20171;-76
2022/06/05 09:26:51;;;;;;;10.65;9.38;;;;;;;;;;4376489;32;20397;-76
2022/06/05 09:38:29;;;;;;;10.48;9.38;;;;;;;;;;4301460;33;20505;-76
2022/06/05 09:43:57;;;;;;;11.73;10.48;;;;;;;;;;4314725;33;20472;-75
2022/06/05 09:50:19;;;;;;;12.63;9.95;;;;;;;;;;4300594;33;20151;-75
2022/06/05 09:55:59;;;;;;;;;;;;;;;;;;4280690;33;20021;-77
2022/06/05 10:11:09;;;;;;;10.20;8.57;;;;;;;;;;4314506;33;20055;-75
2022/06/05 10:13:51;;;;;;;;;;;;;;;;;;;;;
2022/06/05 10:16:35;;;;;;;15.00;11.52;;;;;;;;;;4343435;33;20066;-75
2022/06/05 10:22:25;;;;;;;13.62;10.73;;;;;;;;;;4343150;33;20051;-76
2022/06/05 10:25:28;;;;;;;11.40;10.30;;;;;;;;;;4348257;32;20125;-75
2022/06/05 10:37:53;;;;;;;;;;;;;;;;;;;;;
2022/06/05 10:40:28;;;;;;;12.18;10.90;;;;;;;;;;4328335;33;20059;-75
2022/06/05 10:46:21;;;;;;;14.30;11.40;;;;;;;;;;4356176;32;20135;-76
2022/06/05 10:52:13;;;;;;;13.73;11.05;;;;;;;;;;4359241;32;20059;-75
2022/06/05 10:54:45;;;;;;;11.85;10.07;;;;;;;;;;4360100;32;20036;-76
2022/06/05 11:00:36;;;;;;;12.40;10.65;;;;;;;;;;4360560;33;20045;-76
2022/06/05 11:06:30;;;;;;;12.95;11.60;;;;;;;;;;4360351;32;20070;-75
2022/06/05 11:09:25;;;;;;;10.77;9.68;;;;;;;;;;4360526;32;20065;-75
2022/06/05 11:14:49;;;;;;;13.60;10.15;;;;;;;;;;4360509;32;20046;-75
2022/06/05 11:20:22;;;;;;;10.73;9.65;;;;;;;;;;4361240;32;20065;-75
2022/06/05 11:23:00;;;;;;;14.77;12.55;;;;;;;;;;4359247;33;20082;-76
2022/06/05 11:25:25;;;;;;;14.30;11.05;;;;;;;;;;4360106;33;20065;-75
2022/06/05 11:28:00;;;;;;;13.77;11.80;;;;;;;;;;4346527;33;20031;-75
2022/06/05 11:30:44;;;;;;;12.68;11.48;;;;;;;;;;4360173;32;20070;-75
2022/06/05 11:33:13;;;;;;;14.18;11.43;;;;;;;;;;4360344;32;20389;-75
2022/06/05 11:35:41;;;;;;;15.20;12.15;;;;;;;;;;4362199;32;20063;-75
2022/06/05 11:41:25;;;;;;;18.87;13.38;;;;;;;;;;4363756;32;20368;-75
2022/06/05 11:44:05;;;;;;;15.23;13.68;;;;;;;;;;4359726;32;20082;-75
2022/06/05 11:46:33;;;;;;;18.40;12.50;;;;;;;;;;4361972;32;20112;-75
2022/06/05 11:49:12;;;;;;;16.58;13.85;;;;;;;;;;4362400;32;20031;-75
2022/06/05 11:51:45;;;;;;;15.10;13.65;;;;;;;;;;4363473;32;20089;-75
2022/06/05 11:54:16;;;;;;;19.67;14.82;;;;;;;;;;4363067;32;20066;-75
2022/06/05 11:56:54;;;;;;;16.92;15.02;;;;;;;;;;4362851;32;20047;-74
2022/06/05 11:59:26;;;;;;;17.10;15.30;;;;;;;;;;4362669;32;20050;-75
2022/06/05 12:02:08;;;;;;;17.02;15.32;;;;;;;;;;4362269;32;20062;-75
2022/06/05 12:04:38;;;;;;;19.55;16.50;;;;;;;;;;4362741;32;20023;-76
2022/06/05 12:07:06;;;;;;;22.92;18.48;;;;;;;;;;4363106;32;20054;-75
2022/06/05 12:09:39;;;;;;;18.98;16.65;;;;;;;;;;4362327;32;20439;-75
2022/06/05 12:12:13;;;;;;;20.62;15.60;;;;;;;;;;4361944;32;20058;-75
2022/06/05 12:14:38;;;;;;;23.10;18.35;;;;;;;;;;4377217;32;20091;-76
2022/06/05 12:17:14;;;;;;;22.42;17.65;;;;;;;;;;4377904;32;20365;-75
2022/06/05 12:19:47;;;;;;;21.23;19.02;;;;;;;;;;4377937;32;20022;-75
2022/06/05 12:22:32;;;;;;;20.48;18.37;;;;;;;;;;4375802;32;20058;-75
2022/06/05 12:25:09;;;;;;;24.48;19.98;;;;;;;;;;4377298;32;20065;-75
2022/06/05 12:27:54;;;;;;;22.20;19.80;;;;;;;;;;4377425;32;20031;-75
2022/06/05 12:30:23;;;;;;;21.20;19.08;;;;;;;;;;4376890;32;20027;-75
2022/06/05 12:32:52;;;;;;;24.15;20.62;;;;;;;;;;4377172;32;20060;-75
2022/06/05 12:35:20;;;;;;;24.73;21.70;;;;;;;;;;4377060;32;20061;-76
2022/06/05 12:38:12;;;;;;;30.62;25.17;;;;;;;;;;4375538;32;20046;-75
2022/06/05 12:40:41;;;;;;;25.95;22.50;;;;;;;;;;4377022;32;20061;-76
2022/06/05 12:43:18;;;;;;;34.50;26.12;;;;;;;;;;4375190;32;20065;-75
2022/06/05 12:45:45;;;;;;;33.58;27.48;;;;;;;;;;4376748;32;20023;-76
2022/06/05 12:48:21;;;;;;;37.17;27.10;;;;;;;;;;4376951;32;20439;-75
2022/06/05 12:50:51;;;;;;;35.53;28.23;;;;;;;;;;4363038;32;20058;-75
2022/06/05 12:53:37;;;;;;;34.40;27.25;;;;;;;;;;4376881;32;20042;-75
2022/06/05 12:56:37;;;;;;;38.65;29.20;;;;;;;;;;4376423;32;20365;-76
2022/06/05 12:59:18;;;;;;;37.85;28.42;;;;;;;;;;4376326;32;20091;-76
2022/06/05 13:01:58;;;;;;;31.90;27.83;;;;;;;;;;4376524;32;20043;-76
2022/06/05 13:04:41;;;;;;;43.90;29.20;;;;;;;;;;4376869;32;20035;-74
2022/06/05 13:07:30;;;;;;;34.83;27.37;;;;;;;;;;4376726;32;20082;-75
2022/06/05 13:10:27;;;;;;;40.40;31.83;;;;;;;;;;4361695;32;20031;-76
2022/06/05 13:13:02;;;;;;;41.42;33.10;;;;;;;;;;4354191;32;20035;-74
2022/06/05 13:15:43;;;;;;;34.90;29.63;;;;;;;;;;4361881;32;20447;-76
2022/06/05 13:18:23;;;;;;;40.85;32.05;;;;;;;;;;4361283;32;20051;-75
2022/06/05 13:21:07;;;;;;;39.28;31.08;;;;;;;;;;4361113;32;20085;-76
2022/06/05 13:23:36;;;;;;;38.30;31.95;;;;;;;;;;4361784;32;20027;-75
2022/06/05 13:26:08;;;;;;;39.42;33.15;;;;;;;;;;4361928;32;20035;-76
2022/06/05 13:28:51;;;;;;;39.40;33.28;;;;;;;;;;4362245;32;20023;-76
2022/06/05 13:31:35;;;;;;;45.22;31.77;;;;;;;;;;4359323;33;20046;-76
2022/06/05 13:34:04;;;;;;;39.33;32.67;;;;;;;;;;4361603;32;20066;-76
2022/06/05 13:36:36;;;;;;;42.17;32.63;;;;;;;;;;4361393;32;20413;-76
2022/06/05 13:39:06;;;;;;;44.55;34.95;;;;;;;;;;4361586;32;20405;-76
2022/06/05 13:41:34;;;;;;;47.58;35.92;;;;;;;;;;4361172;32;20093;-77
2022/06/05 13:44:02;;;;;;;43.75;34.78;;;;;;;;;;4366854;32;20056;-77
2022/06/05 13:46:31;;;;;;;49.65;36.25;;;;;;;;;;4347246;33;20038;-77
2022/06/05 13:48:56;;;;;;;43.40;34.22;;;;;;;;;;4360670;32;20051;-77
2022/06/05 13:51:28;;;;;;;36.70;29.98;;;;;;;;;;4360786;32;20069;-76
2022/06/05 13:54:10;;;;;;;58.47;40.85;;;;;;;;;;4359907;32;20333;-77
2022/06/05 13:56:47;;;;;;;61.25;43.38;;;;;;;;;;4360962;33;20062;-77
2022/06/05 13:59:21;;;;;;;52.33;39.00;;;;;;;;;;4359747;32;20409;-76
2022/06/05 14:02:24;;;;;;;60.08;42.42;;;;;;;;;;4361006;32;20031;-76
2022/06/05 14:04:59;;;;;;;47.58;39.17;;;;;;;;;;4360899;32;20034;-77
2022/06/05 14:07:26;;;;;;;60.53;41.10;;;;;;;;;;4347602;33;20365;-77
2022/06/05 14:10:06;;;;;;;59.90;40.53;;;;;;;;;;4359517;32;20101;-77
2022/06/05 14:12:42;;;;;;;56.00;40.90;;;;;;;;;;4361132;32;20455;-78
2022/06/05 14:15:34;;;;;;;54.13;42.13;;;;;;;;;;4360115;32;20031;-77
2022/06/05 14:17:59;;;;;;;51.40;39.55;;;;;;;;;;4360161;32;20157;-77
2022/06/05 14:20:27;;;;;;;55.65;41.53;;;;;;;;;;4346911;32;20036;-77
2022/06/05 14:22:54;;;;;;;80.57;48.58;;;;;;;;;;4360392;32;20063;-76
2022/06/05 14:25:22;;;;;;;67.12;49.72;;;;;;;;;;4360461;32;20081;-76
2022/06/05 14:27:53;;;;;;;68.85;47.50;;;;;;;;;;4361068;32;20341;-76
2022/06/05 14:30:23;;;;;;;67.22;45.47;;;;;;;;;;4360507;32;20057;-77
2022/06/05 14:32:48;;;;;;;71.20;46.53;;;;;;;;;;4361082;32;20068;-78
2022/06/05 14:35:16;;;;;;;71.55;47.65;;;;;;;;;;4360515;33;20386;-76
2022/06/05 14:38:00;;;;;;;70.18;50.65;;;;;;;;;;4346711;33;20031;-77
2022/06/05 14:40:31;;;;;;;85.80;53.75;;;;;;;;;;4360256;32;20054;-75
2022/06/05 14:43:05;;;;;;;78.40;53.60;;;;;;;;;;4359957;32;20031;-77
2022/06/05 14:45:30;;;;;;;85.12;54.65;;;;;;;;;;4360159;33;20168;-75
2022/06/05 14:48:01;;;;;;;82.90;54.55;;;;;;;;;;4360809;32;20016;-75
2022/06/05 14:50:31;;;;;;;83.90;53.85;;;;;;;;;;4360152;32;20038;-76
2022/06/05 14:53:25;;;;;;;85.87;52.85;;;;;;;;;;4360302;32;20394;-74
2022/06/05 14:59:01;;;;;;;85.93;54.25;;;;;;;;;;4360712;32;20034;-77
2022/06/05 15:01:40;;;;;;;87.30;53.40;;;;;;;;;;4359927;33;20050;-75
2022/06/05 15:04:24;;;;;;;67.95;47.25;;;;;;;;;;4360177;32;20020;-75
2022/06/05 15:06:55;;;;;;;79.18;51.08;;;;;;;;;;4360041;33;20405;-76
2022/06/05 15:09:34;;;;;;;68.70;46.65;;;;;;;;;;4360601;32;20015;-75
2022/06/05 15:12:03;;;;;;;82.80;50.88;;;;;;;;;;4363252;32;20047;-75
2022/06/05 15:14:39;;;;;;;77.87;50.50;;;;;;;;;;4349996;32;20023;-75
2022/06/05 15:17:29;;;;;;;70.90;47.17;;;;;;;;;;4363459;32;20041;-75
2022/06/05 15:19:55;;;;;;;85.25;49.80;;;;;;;;;;4363315;32;20015;-76
2022/06/05 15:22:25;;;;;;;73.40;47.08;;;;;;;;;;4363179;32;20051;-76
2022/06/05 15:24:58;;;;;;;67.18;45.83;;;;;;;;;;4363165;32;20044;-76
2022/06/05 15:27:29;;;;;;;77.22;49.28;;;;;;;;;;4361998;32;20035;-73
2022/06/05 15:30:09;;;;;;;70.70;47.15;;;;;;;;;;4362756;32;20020;-76
2022/06/05 15:32:37;;;;;;;79.37;50.10;;;;;;;;;;4363009;32;20352;-75
2022/06/05 15:35:10;;;;;;;78.40;48.75;;;;;;;;;;4363090;32;20386;-75
2022/06/05 15:37:47;;;;;;;85.68;53.85;;;;;;;;;;4363094;32;20466;-76
2022/06/05 15:40:12;;;;;;;60.38;44.38;;;;;;;;;;4362690;32;20102;-75
2022/06/05 15:42:43;;;;;;;78.57;48.17;;;;;;;;;;4362499;32;20053;-76
2022/06/05 15:45:20;;;;;;;78.45;49.28;;;;;;;;;;4362624;32;20322;-77
2022/06/05 15:47:51;;;;;;;77.55;48.00;;;;;;;;;;4362918;32;20023;-76
2022/06/05 15:50:30;;;;;;;65.12;43.08;;;;;;;;;;4362400;32;20027;-75
2022/06/05 15:53:25;;;;;;;74.93;47.13;;;;;;;;;;4363355;32;20023;-76
2022/06/05 15:56:08;;;;;;;69.50;46.45;;;;;;;;;;4359020;33;20028;-75
2022/06/05 15:58:40;;;;;;;65.57;45.35;;;;;;;;;;4363058;32;20030;-76
2022/06/05 16:01:11;;;;;;;73.10;45.70;;;;;;;;;;4362850;32;20094;-76
2022/06/05 16:03:48;;;;;;;76.12;48.50;;;;;;;;;;4362313;32;20020;-76
2022/06/05 16:06:13;;;;;;;;;;;;;;;;;;4362891;32;20027;-76
2022/06/05 16:08:45;;;;;;;75.60;48.83;;;;;;;;;;4362410;32;19988;-77
2022/06/05 16:11:21;;;;;;;76.55;50.03;;;;;;;;;;4362965;32;20082;-78
2022/06/05 16:14:21;;;;;;;77.70;50.45;;;;;;;;;;4362164;32;20045;-76
2022/06/05 16:17:09;;;;;;;71.78;48.53;;;;;;;;;;4362442;32;20023;-77
2022/06/05 16:19:54;;;;;;;71.85;47.80;;;;;;;;;;4353953;33;20050;-78
2022/06/05 16:22:29;;;;;;;80.65;51.60;;;;;;;;;;4361773;32;20467;-77
2022/06/05 16:25:15;;;;;;;79.93;51.45;;;;;;;;;;4348611;33;20027;-78
2022/06/05 16:27:54;;;;;;;82.07;52.15;;;;;;;;;;4358554;32;20024;-78
2022/06/05 16:30:49;;;;;;;71.97;49.45;;;;;;;;;;4361940;32;20429;-75
2022/06/05 16:33:37;;;;;;;76.40;49.28;;;;;;;;;;4358152;33;20040;-78
2022/06/05 16:38:58;;;;;;;69.95;48.70;;;;;;;;;;4361945;32;20101;-78
2022/06/05 16:41:26;;;;;;;;;;;;;;;;;;4361108;33;20318;-78
2022/06/05 16:43:53;;;;;;;76.53;49.35;;;;;;;;;;4352731;32;19981;-79
2022/06/05 16:46:30;;;;;;;74.78;49.92;;;;;;;;;;4376373;32;20027;-78
2022/06/05 16:48:57;;;;;;;87.47;53.90;;;;;;;;;;4377677;32;20034;-78
2022/06/05 16:51:35;;;;;;;70.05;50.38;;;;;;;;;;4376599;32;20392;-78
2022/06/05 16:54:07;;;;;;;78.65;49.05;;;;;;;;;;4377109;32;20058;-77
2022/06/05 16:56:50;;;;;;;73.97;49.22;;;;;;;;;;4376807;32;20050;-77
2022/06/05 16:59:27;;;;;;;72.22;49.80;;;;;;;;;;4376468;32;20049;-77